This is the latest recevied weather packets stored in our database for station/object N9ALD. If no packets are shown the sender has not sent any weather packets the latest 10 day(s).
| Time | Temp. | Humidity | Pressure | Rain* | Wind** | Luminosity | Snow |
|---|---|---|---|---|---|---|---|
| 1777060634 | 22.22° C | 77% | 1002.5 hPa | 0 mm | - | 156 W/m² | - |
| 1777060330 | 21.67° C | 77% | 1002.5 hPa | 0 mm | - | 188 W/m² | - |
| 1777060027 | 21.67° C | 80% | 1002.8 hPa | 0 mm | - | 384 W/m² | - |
| 1777059722 | 21.11° C | 79% | 1002.8 hPa | 0 mm | - | 654 W/m² | - |
| 1777059419 | 21.11° C | 78% | 1002.8 hPa | 0 mm | - | 212 W/m² | - |
| 1777059116 | 20.56° C | 80% | 1003.1 hPa | 0 mm | - | 885 W/m² | - |
| 1777058810 | 20.56° C | 76% | 1003.4 hPa | 0 mm | - | 625 W/m² | - |
| 1777058505 | 22.78° C | 73% | 1003.9 hPa | 0 mm | - | 106 W/m² | - |
| 1777058204 | 23.33° C | 67% | 1003.2 hPa | 0 mm | - | 60 W/m² | - |
| 1777057898 | 23.33° C | 63% | 1003.2 hPa | 0 mm | - | 90 W/m² | - |
| 1777057593 | 23.89° C | 63% | 1003.3 hPa | 0 mm | - | 175 W/m² | - |
| 1777057289 | 23.89° C | 63% | 1003.2 hPa | 0 mm | - | 282 W/m² | - |
| 1777056985 | 23.33° C | 63% | 1003.3 hPa | 0 mm | - | 346 W/m² | - |
| 1777056684 | 23.33° C | 63% | 1003.4 hPa | 0 mm | - | 267 W/m² | - |
| 1777056380 | 23.33° C | 65% | 1003.4 hPa | 0 mm | - | 296 W/m² | - |
| 1777056077 | 22.78° C | 66% | 1003.4 hPa | 0 mm | - | 188 W/m² | - |
| 1777055773 | 22.78° C | 66% | 1003.6 hPa | 0 mm | - | 249 W/m² | - |
| 1777055469 | 23.33° C | 65% | 1003.6 hPa | 0 mm | - | 154 W/m² | - |
| 1777055163 | 23.89° C | 63% | 1003.5 hPa | 0 mm | - | 199 W/m² | - |
| 1777054857 | 24.44° C | 61% | 1003.4 hPa | 0 mm | - | 197 W/m² | - |
| 1777054554 | 24.44° C | 60% | 1003.5 hPa | 0 mm | - | 240 W/m² | - |
| 1777054251 | 24.44° C | 60% | 1003.6 hPa | 0 mm | - | 302 W/m² | - |
| 1777053950 | 25° C | 58% | 1003.4 hPa | 0 mm | - | 269 W/m² | - |
| 1777053645 | 25° C | 59% | 1004 hPa | 0 mm | - | 366 W/m² | - |
| 1777053344 | 25° C | 59% | 1003.9 hPa | 0 mm | - | 364 W/m² | - |
* Rain latest hour (hover to see other rain measurements)
** Current wind speed in m/s (hover to see current wind gust speed)